F45 weather

North Palm Beach County General Aviation Airport
West Palm Beach, Florida, United States

Public forecast

Using degrees Fahrenheit for public forecast. Weather courtesy of forecast.io.

Closest aviation weather report (METAR) to North Palm Beach County General Aviation Airport

Closest report is Palm Beach International Airport, 11.8 nm (21.8 km) SE. Retrieved 2019/10/17 20:53 UTC (45 minutes ago):

KPBI 172053Z 31010KT 10SM SCT045 BKN080 31/21 A2987 RMK AO2 LTG DSNT S AND SW SLP115 CB DSNT SE-SW T03110211 56010

Closest aviation forecast (TAF) to North Palm Beach County General Aviation Airport

Closest forecast is Palm Beach International Airport, 11.8 nm (21.8 km) SE. Retrieved 2019/10/17 18:31 UTC (3 hours ago):

TAF KPBI 171722Z 1718/1818 27006KT P6SM VCSH SCT025 BKN040 FM172000 06007KT P6SM VCTS SCT025CB BKN100 FM180000 VRB04KT P6SM VCSH FEW025 SCT050 SCT150 FM181500 11008KT P6SM SCT035 BKN050